Terminal Aerodrome Forecast
Issued by NWS

Home | Current Version | Previous Version | Text Only | Print | Product List | Glossary On
Versions: 1 2 3 4 5 6 7 8 9 10 11 12 13
000
FTUS44 KJAN 012320
TAFGTR
TAF
KGTR 012320Z 0200/0224 33005KT P6SM SCT035
     FM020800 34004KT 6SM BR OVC007
     FM021500 35006KT P6SM BKN015 OVC025
     FM021700 35006KT P6SM BKN035=

USA.gov is the U.S. government's official web portal to all federal, state and local government web resources and services.